Time;durP1;ratioP1;P1;durP2;ratioP2;P2;SDS_P1;SDS_P2;PMS_P1;PMS_P2;Temp;Humidity;BMP_temperature;BMP_pressure;BME280_temperature;BME280_humidity;BME280_pressure;Samples;Min_cycle;Max_cycle;Signal;HPM_P1;HPM_P2
2024/02/13 00:00:34;;;;;;;8.20;5.15;;;;;;;0.24;62.51;99639.03;4778581;29;20058;-66
2024/02/13 00:03:00;;;;;;;9.68;5.32;;;;;;;0.38;63.48;99647.13;4776023;29;20066;-66
2024/02/13 00:05:27;;;;;;;8.18;5.07;;;;;;;0.22;62.96;99623.66;4776767;29;20054;-66
2024/02/13 00:07:53;;;;;;;8.55;5.00;;;;;;;0.29;63.36;99647.72;4792144;29;20039;-69
2024/02/13 00:10:22;;;;;;;7.95;4.45;;;;;;;0.24;63.20;99650.16;4776328;29;20070;-68
2024/02/13 00:12:50;;;;;;;7.85;4.25;;;;;;;0.24;62.44;99655.28;4780412;29;20046;-69
2024/02/13 00:15:21;;;;;;;6.57;4.07;;;;;;;0.25;62.91;99653.56;4780088;29;20526;-67
2024/02/13 00:17:48;;;;;;;7.65;4.65;;;;;;;0.24;62.51;99650.16;4760737;29;20503;-68
2024/02/13 00:20:14;;;;;;;9.10;5.00;;;;;;;-0.21;62.07;99589.06;4780295;29;20053;-67
2024/02/13 00:22:41;;;;;;;7.90;4.60;;;;;;;0.17;62.54;99650.78;4790418;29;20073;-68
2024/02/13 00:25:09;;;;;;;8.70;4.82;;;;;;;0.17;63.08;99650.78;4780866;29;20392;-71
2024/02/13 00:27:38;;;;;;;8.05;4.75;;;;;;;0.16;62.08;99654.16;4762068;29;20043;-68
2024/02/13 00:30:05;;;;;;;7.18;4.40;;;;;;;-0.03;62.01;99629.72;4774913;29;20128;-67
2024/02/13 00:32:49;;;;;;;8.25;4.40;;;;;;;-0.27;63.14;99594.88;4779972;29;20096;-67
2024/02/13 00:35:35;;;;;;;8.95;4.70;;;;;;;0.08;62.59;99658.19;4791646;29;20134;-67
2024/02/13 00:38:01;;;;;;;8.25;4.60;;;;;;;0.03;63.19;99649.50;4778237;29;20097;-66
2024/02/13 00:40:27;;;;;;;10.23;5.25;;;;;;;0.03;62.97;99657.19;4759444;29;20137;-66
2024/02/13 00:42:53;;;;;;;9.68;5.00;;;;;;;-0.04;62.53;99633.09;4751604;29;20043;-66
2024/02/13 00:45:19;;;;;;;8.63;5.72;;;;;;;0.12;62.78;99654.88;4789509;29;20043;-65
2024/02/13 00:48:07;;;;;;;8.32;4.97;;;;;;;0.12;62.33;99665.13;4768687;29;20058;-65
2024/02/13 00:50:33;;;;;;;9.52;5.40;;;;;;;0.09;62.55;99670.19;4774383;29;20116;-65
2024/02/13 00:52:59;;;;;;;9.65;5.18;;;;;;;0.06;62.97;99662.41;4784082;29;20047;-65
2024/02/13 00:55:26;;;;;;;8.75;5.00;;;;;;;0.08;62.57;99671.00;4779802;29;20049;-66
2024/02/13 00:57:52;;;;;;;10.15;4.97;;;;;;;-0.02;62.26;99663.00;4768363;29;20408;-67
2024/02/13 01:00:18;;;;;;;7.28;4.82;;;;;;;0.02;62.12;99663.13;4767220;29;20046;-66
2024/02/13 01:02:44;;;;;;;8.77;5.07;;;;;;;0.03;61.93;99662.28;4792951;29;20053;-66
2024/02/13 01:05:11;;;;;;;8.75;4.65;;;;;;;0.03;62.54;99663.16;4763831;29;20079;-65
2024/02/13 01:07:37;;;;;;;8.93;5.07;;;;;;;-0.12;61.22;99668.69;4763797;29;20050;-65
2024/02/13 01:10:06;;;;;;;7.78;5.10;;;;;;;-0.06;62.44;99681.63;4781792;29;20051;-66
2024/02/13 01:12:35;;;;;;;8.48;5.10;;;;;;;0.03;62.94;99686.19;4794727;29;20095;-66
2024/02/13 01:15:04;;;;;;;7.50;4.82;;;;;;;-0.08;61.40;99679.88;4777789;29;20054;-65
2024/02/13 01:17:34;;;;;;;7.95;4.93;;;;;;;-0.11;61.64;99693.41;4767749;29;20130;-65
2024/02/13 01:20:01;;;;;;;10.02;4.57;;;;;;;-0.08;62.49;99678.16;4797020;29;20046;-65
2024/02/13 01:22:31;;;;;;;9.77;5.05;;;;;;;-0.09;62.19;99680.69;4763393;29;20515;-65
2024/02/13 01:24:59;;;;;;;8.95;4.60;;;;;;;-0.14;61.20;99700.13;4792409;29;20051;-64
2024/02/13 01:27:25;;;;;;;9.25;4.93;;;;;;;-0.28;61.97;99689.44;4797197;29;20054;-66
2024/02/13 01:29:51;;;;;;;8.98;5.05;;;;;;;-0.22;62.09;99695.63;4778088;29;20058;-66
2024/02/13 01:32:17;;;;;;;9.32;5.15;;;;;;;-0.40;61.30;99688.22;4766871;29;20133;-65
2024/02/13 01:34:43;;;;;;;10.20;5.50;;;;;;;-0.44;62.18;99696.59;4773374;29;20105;-65
2024/02/13 01:37:09;;;;;;;9.48;5.10;;;;;;;-0.35;62.46;99699.47;4776871;29;20043;-65
2024/02/13 01:39:35;;;;;;;9.30;5.32;;;;;;;-0.38;61.83;99701.03;4792900;29;20059;-65
2024/02/13 01:42:01;;;;;;;8.02;4.97;;;;;;;-0.33;62.03;99708.03;4780069;29;20047;-66
2024/02/13 01:44:28;;;;;;;10.75;5.70;;;;;;;-0.29;62.21;99713.25;4777571;29;20050;-66
2024/02/13 01:46:55;;;;;;;9.70;5.30;;;;;;;-0.35;62.43;99719.06;4752151;29;20130;-65
2024/02/13 01:49:23;;;;;;;12.38;5.85;;;;;;;-0.47;62.10;99697.38;4781135;29;20043;-65
2024/02/13 01:51:53;;;;;;;12.52;6.53;;;;;;;-0.56;61.90;99698.75;4777662;29;20043;-68
2024/02/13 01:54:19;;;;;;;11.02;5.90;;;;;;;-0.57;62.29;99697.00;4776495;29;20071;-65
2024/02/13 01:56:49;;;;;;;14.45;7.00;;;;;;;-0.42;62.73;99723.09;4782292;29;20078;-65
2024/02/13 01:59:15;;;;;;;12.63;6.70;;;;;;;-0.53;62.08;99709.06;4748853;29;20039;-67
2024/02/13 02:01:42;;;;;;;14.20;6.68;;;;;;;-0.40;61.66;99744.47;4779491;29;20050;-66
2024/02/13 02:04:09;;;;;;;13.88;6.85;;;;;;;-0.47;62.36;99732.28;4777584;29;20047;-68
2024/02/13 02:06:37;;;;;;;15.07;6.85;;;;;;;-0.46;62.07;99746.81;4793089;29;20058;-68
2024/02/13 02:09:07;;;;;;;14.55;7.10;;;;;;;-0.89;61.45;99694.19;4764243;29;20122;-67
2024/02/13 02:11:35;;;;;;;14.07;7.20;;;;;;;-0.69;62.45;99735.78;4791021;29;20107;-67
2024/02/13 02:14:06;;;;;;;12.60;6.88;;;;;;;-0.46;61.77;99762.16;4777218;29;20050;-68
2024/02/13 02:16:52;;;;;;;14.18;7.80;;;;;;;-0.58;61.44;99754.91;4783164;29;20136;-67
2024/02/13 02:19:18;;;;;;;16.92;7.05;;;;;;;-0.59;62.03;99763.41;4782093;29;20188;-67
2024/02/13 02:21:46;;;;;;;14.82;7.38;;;;;;;-0.52;61.98;99765.38;4778434;29;20042;-66
2024/02/13 02:24:12;;;;;;;13.68;6.70;;;;;;;-0.59;61.27;99760.00;4791347;29;20059;-68
2024/02/13 02:26:58;;;;;;;14.90;6.68;;;;;;;-0.68;61.87;99751.16;4768988;29;20043;-65
2024/02/13 02:29:41;;;;;;;16.13;7.25;;;;;;;-0.76;61.26;99758.56;4791593;29;20563;-67
2024/02/13 02:32:10;;;;;;;12.20;6.40;;;;;;;-0.74;62.27;99758.59;4794094;29;20556;-67
2024/02/13 02:34:36;;;;;;;14.60;6.70;;;;;;;-0.70;61.45;99778.34;4794281;29;20043;-68
2024/02/13 02:37:04;;;;;;;16.13;7.30;;;;;;;-0.78;62.10;99764.44;4781816;29;20043;-67
2024/02/13 02:39:30;;;;;;;12.40;6.80;;;;;;;-0.74;62.32;99780.75;4796609;29;20047;-67
2024/02/13 02:41:56;;;;;;;12.82;6.80;;;;;;;-0.82;61.16;99785.59;4774671;29;20047;-65
2024/02/13 02:44:23;;;;;;;15.52;7.40;;;;;;;-0.82;61.96;99794.09;4764533;29;20055;-66
2024/02/13 02:46:49;;;;;;;15.95;7.10;;;;;;;-0.81;61.93;99774.56;4792249;29;20770;-66
2024/02/13 02:49:16;;;;;;;17.00;8.07;;;;;;;-0.79;61.52;99784.00;4776842;29;20053;-66
2024/02/13 02:51:43;;;;;;;13.98;6.90;;;;;;;-1.15;61.53;99733.31;4767038;29;20047;-67
2024/02/13 02:54:10;;;;;;;16.58;7.38;;;;;;;-0.83;61.70;99794.06;4776498;29;20050;-66
2024/02/13 02:56:38;;;;;;;16.75;7.55;;;;;;;-0.86;61.71;99781.16;4792598;29;20069;-66
2024/02/13 02:59:05;;;;;;;13.90;6.45;;;;;;;-0.87;60.95;99782.84;4779588;29;22069;-67
2024/02/13 03:01:31;;;;;;;15.68;6.75;;;;;;;-0.87;61.22;99808.38;4794205;29;20043;-66
2024/02/13 03:03:57;;;;;;;14.38;6.85;;;;;;;-0.90;61.43;99795.53;4780016;29;20054;-65
2024/02/13 03:06:23;;;;;;;14.48;6.68;;;;;;;-0.93;60.80;99792.84;4791547;29;20506;-64
2024/02/13 03:08:50;;;;;;;14.25;7.43;;;;;;;-0.96;61.31;99805.50;4776075;29;21233;-63
2024/02/13 03:11:16;;;;;;;14.55;6.75;;;;;;;-1.02;61.63;99795.06;4778961;29;20043;-64
2024/02/13 03:13:42;;;;;;;14.80;7.07;;;;;;;-1.11;61.22;99806.69;4776269;29;20426;-65
2024/02/13 03:16:08;;;;;;;16.02;6.68;;;;;;;-1.14;60.88;99810.78;4792396;29;20502;-65
2024/02/13 03:18:35;;;;;;;13.25;6.65;;;;;;;-1.14;61.73;99806.56;4775585;29;20418;-64
2024/02/13 03:21:04;;;;;;;14.80;6.43;;;;;;;-1.17;60.72;99796.22;4765339;29;20522;-65
2024/02/13 03:23:32;;;;;;;13.40;6.82;;;;;;;-1.14;61.00;99818.44;4761841;29;20111;-65
2024/02/13 03:25:58;;;;;;;13.20;6.30;;;;;;;-1.15;60.91;99820.13;4765178;29;20051;-64
2024/02/13 03:28:44;;;;;;;14.52;6.22;;;;;;;-1.22;61.01;99808.81;4790941;29;20069;-64
2024/02/13 03:31:11;;;;;;;14.23;6.63;;;;;;;-1.11;60.93;99831.34;4775264;29;20096;-66
2024/02/13 03:33:38;;;;;;;12.45;6.25;;;;;;;-1.21;60.17;99819.88;4764241;29;20092;-65
2024/02/13 03:36:04;;;;;;;16.88;7.13;;;;;;;-1.23;61.44;99834.28;4778159;29;20054;-64
2024/02/13 03:38:33;;;;;;;16.63;7.40;;;;;;;-1.31;60.80;99812.66;4791646;29;20076;-64
2024/02/13 03:41:00;;;;;;;14.75;6.35;;;;;;;-1.19;61.46;99837.81;4765545;29;20047;-66
2024/02/13 03:43:26;;;;;;;15.90;7.07;;;;;;;-1.23;60.78;99829.16;4792391;29;20050;-64
2024/02/13 03:45:53;;;;;;;13.77;7.35;;;;;;;-1.24;60.94;99835.09;4784406;29;20057;-66
2024/02/13 03:48:25;;;;;;;15.98;6.65;;;;;;;-1.23;61.18;99845.38;4792977;29;20059;-65
2024/02/13 03:50:51;;;;;;;18.80;8.07;;;;;;;-1.21;60.79;99845.44;4780053;29;20047;-67
2024/02/13 03:53:17;;;;;;;14.68;7.03;;;;;;;-1.24;61.07;99830.88;4789737;29;20111;-64
2024/02/13 03:55:43;;;;;;;14.02;6.68;;;;;;;-1.15;61.18;99849.91;4775476;29;20528;-64
2024/02/13 03:58:10;;;;;;;14.13;6.80;;;;;;;-1.27;60.72;99835.84;4792342;29;20054;-65
2024/02/13 04:00:40;;;;;;;16.38;7.80;;;;;;;-1.31;60.58;99856.97;4790307;29;20124;-66
2024/02/13 04:03:06;;;;;;;11.80;6.32;;;;;;;-1.33;60.58;99863.69;4792331;29;20051;-66
2024/02/13 04:05:38;;;;;;;13.25;7.13;;;;;;;-1.42;60.18;99856.53;4774471;29;20145;-65
2024/02/13 04:08:08;;;;;;;13.82;6.97;;;;;;;-1.39;60.51;99871.09;4786386;29;20422;-66
2024/02/13 04:10:35;;;;;;;19.08;8.05;;;;;;;-1.32;60.30;99896.06;4780886;29;20047;-66
2024/02/13 04:13:13;;;;;;;17.52;7.30;;;;;;;-1.38;60.71;99888.16;4766530;29;20107;-65
2024/02/13 04:15:39;;;;;;;14.27;7.20;;;;;;;-1.30;60.89;99911.44;4779827;29;20496;-65
2024/02/13 04:18:07;;;;;;;17.67;7.78;;;;;;;-1.39;60.50;99884.75;4791480;29;20081;-66
2024/02/13 04:20:37;;;;;;;18.77;6.97;;;;;;;-1.25;61.00;99905.72;4765102;29;20058;-65
2024/02/13 04:23:04;;;;;;;15.27;7.72;;;;;;;-1.31;60.72;99885.06;4779380;29;20134;-66
2024/02/13 04:25:31;;;;;;;17.73;7.80;;;;;;;-1.59;60.13;99872.84;4780634;29;20051;-65
2024/02/13 04:27:58;;;;;;;16.25;7.20;;;;;;;-1.42;60.98;99882.06;4782234;29;20050;-65
2024/02/13 04:30:24;;;;;;;18.80;7.78;;;;;;;-1.21;60.38;99906.72;4765030;29;20096;-66
2024/02/13 04:32:50;;;;;;;15.95;7.43;;;;;;;-1.41;60.56;99867.59;4776957;29;20051;-64
2024/02/13 04:35:17;;;;;;;17.55;7.72;;;;;;;-1.39;60.56;99881.31;4782839;29;20137;-64
2024/02/13 04:37:43;;;;;;;19.85;8.10;;;;;;;-1.29;60.67;99916.63;4766748;29;20075;-64
2024/02/13 04:40:10;;;;;;;17.10;7.65;;;;;;;-1.31;60.70;99913.13;4782539;29;20440;-64
2024/02/13 04:42:56;;;;;;;15.15;7.30;;;;;;;-1.30;60.60;99914.00;4785220;29;20105;-67
2024/02/13 04:45:23;;;;;;;16.67;7.70;;;;;;;-1.24;60.79;99932.13;4763064;29;20066;-65
2024/02/13 04:47:49;;;;;;;14.73;7.45;;;;;;;-1.29;60.50;99926.84;4781613;29;20058;-66
2024/02/13 04:50:16;;;;;;;17.00;8.15;;;;;;;-1.32;61.00;99938.63;4783093;29;20043;-66
2024/02/13 04:52:43;;;;;;;16.02;7.85;;;;;;;-1.30;59.40;99944.63;4792861;29;20074;-64
2024/02/13 04:55:10;;;;;;;18.15;7.80;;;;;;;-1.33;60.22;99935.19;4778687;29;20490;-66
2024/02/13 04:57:38;;;;;;;14.73;7.20;;;;;;;-1.26;60.94;99949.97;4779085;29;20046;-65
2024/02/13 05:00:24;;;;;;;19.63;8.07;;;;;;;-1.25;60.70;99940.59;4782286;29;20038;-65
2024/02/13 05:08:22;;;;;;;18.00;7.90;;;;;;;-1.49;59.36;99950.69;4780133;29;20066;-65
2024/02/13 05:10:49;;;;;;;18.45;8.48;;;;;;;-1.53;60.40;99935.22;4794277;29;20422;-64
2024/02/13 05:13:17;;;;;;;16.40;7.45;;;;;;;-1.34;60.31;99971.72;4795706;29;20085;-66
2024/02/13 05:15:46;;;;;;;16.73;8.57;;;;;;;-1.42;60.34;99962.88;4765747;29;20586;-64
2024/02/13 05:18:13;;;;;;;19.95;8.32;;;;;;;-1.39;60.47;99965.56;4760018;29;20055;-64
2024/02/13 05:20:40;;;;;;;16.95;7.57;;;;;;;-1.24;60.46;99986.66;4783115;29;20158;-65
2024/02/13 05:23:09;;;;;;;17.67;8.77;;;;;;;-1.27;60.57;99989.06;4798903;29;20055;-65
2024/02/13 05:25:39;;;;;;;16.65;7.82;;;;;;;-1.17;60.48;99999.66;4792288;29;20054;-64
2024/02/13 05:28:06;;;;;;;18.98;8.48;;;;;;;-1.15;60.41;99995.47;4768531;29;20051;-65
2024/02/13 05:30:33;;;;;;;15.40;7.60;;;;;;;-1.19;60.32;99997.03;4766562;29;20051;-65
2024/02/13 05:32:59;;;;;;;19.10;8.40;;;;;;;-1.13;60.52;100019.41;4778323;29;20043;-65
2024/02/13 05:35:25;;;;;;;19.75;8.50;;;;;;;-1.23;60.40;100010.50;4767289;29;20050;-66
2024/02/13 05:37:51;;;;;;;16.80;8.25;;;;;;;-1.08;60.00;100035.81;4768254;29;20039;-65
2024/02/13 05:40:18;;;;;;;16.65;7.63;;;;;;;-1.14;60.46;100035.53;4767566;29;20055;-67
2024/02/13 05:42:47;;;;;;;18.15;8.73;;;;;;;-1.26;59.99;100010.34;4793521;29;20137;-68
2024/02/13 05:45:14;;;;;;;17.85;8.90;;;;;;;-1.21;59.85;100024.19;4753008;29;20529;-65
2024/02/13 05:47:58;;;;;;;17.85;7.93;;;;;;;-1.39;59.80;100025.16;4793856;29;20059;-66
2024/02/13 05:50:25;;;;;;;22.27;8.98;;;;;;;-1.19;60.65;100049.78;4793788;29;20047;-65
2024/02/13 05:52:52;;;;;;;17.95;7.85;;;;;;;-1.19;60.37;100057.44;4776400;29;20511;-66
2024/02/13 05:55:19;;;;;;;15.63;7.93;;;;;;;-1.29;59.66;100051.06;4781514;29;20133;-63
2024/02/13 05:57:45;;;;;;;18.20;8.30;;;;;;;-1.32;60.10;100035.66;4782060;29;20053;-66
2024/02/13 06:00:14;;;;;;;21.25;8.50;;;;;;;-1.23;59.88;100047.13;4794672;29;20043;-64
2024/02/13 06:02:42;;;;;;;21.50;8.95;;;;;;;-1.20;59.57;100041.28;4794432;29;20058;-65
2024/02/13 06:05:09;;;;;;;18.30;8.10;;;;;;;-1.37;59.67;100038.88;4796260;29;20182;-63
2024/02/13 06:07:40;;;;;;;18.67;7.95;;;;;;;-1.28;60.42;100061.38;4768018;29;20054;-65
2024/02/13 06:10:06;;;;;;;17.98;8.20;;;;;;;-1.21;60.72;100076.13;4777924;29;20079;-66
2024/02/13 06:12:33;;;;;;;15.15;7.68;;;;;;;-1.61;60.22;100014.84;4767373;29;21758;-65
2024/02/13 06:15:01;;;;;;;13.30;7.38;;;;;;;-1.25;60.59;100081.94;4753261;29;20675;-64
2024/02/13 06:17:33;;;;;;;16.00;7.35;;;;;;;-1.21;60.20;100063.38;4782272;29;20046;-65
2024/02/13 06:20:04;;;;;;;15.52;7.13;;;;;;;-1.05;60.33;100087.03;4776823;29;20083;-66
2024/02/13 06:22:35;;;;;;;16.80;7.88;;;;;;;-1.10;60.04;100074.03;4764505;29;20062;-64
2024/02/13 06:25:04;;;;;;;16.70;6.93;;;;;;;-1.12;59.08;100090.13;4780036;29;20051;-66
2024/02/13 06:27:35;;;;;;;14.75;7.38;;;;;;;-1.55;60.17;100090.00;4765275;29;20490;-66
2024/02/13 06:30:04;;;;;;;15.07;7.30;;;;;;;-1.53;60.27;100077.28;4792873;29;20042;-65
2024/02/13 06:32:41;;;;;;;16.58;7.88;;;;;;;-1.53;60.50;100090.94;4793734;29;20095;-65
2024/02/13 06:35:08;;;;;;;16.25;7.15;;;;;;;-1.71;59.35;100083.31;4764043;29;20072;-65
2024/02/13 06:37:54;;;;;;;20.13;9.18;;;;;;;-1.59;60.84;100083.00;4779052;29;20047;-66
2024/02/13 06:40:21;;;;;;;17.02;7.57;;;;;;;-1.28;60.99;100099.69;4776411;29;20108;-65
2024/02/13 06:42:47;;;;;;;15.45;7.00;;;;;;;-1.31;60.06;100102.09;4766527;29;20587;-66
2024/02/13 06:45:13;;;;;;;18.40;8.13;;;;;;;-1.28;60.93;100094.56;4766576;29;20060;-66
2024/02/13 06:47:40;;;;;;;16.10;7.88;;;;;;;-1.14;59.80;100097.72;4793460;29;20096;-67
2024/02/13 06:50:12;;;;;;;17.08;7.70;;;;;;;-1.08;60.44;100107.34;4794109;29;20170;-67
2024/02/13 06:52:39;;;;;;;16.33;8.23;;;;;;;-0.97;59.89;100111.22;4781374;29;20046;-66
2024/02/13 06:55:07;;;;;;;17.65;8.02;;;;;;;-1.12;59.92;100083.34;4777957;29;20514;-67
2024/02/13 06:57:49;;;;;;;22.13;10.23;;;;;;;-0.77;59.78;100132.50;4764235;29;20095;-64
2024/02/13 07:00:16;;;;;;;28.88;12.35;;;;;;;-0.79;60.20;100134.13;4766495;29;20038;-64
2024/02/13 07:02:43;;;;;;;28.10;11.55;;;;;;;-1.19;58.87;100111.09;4776778;29;20245;-66
2024/02/13 07:05:10;;;;;;;27.50;11.95;;;;;;;-1.12;59.04;100142.09;4761079;29;20384;-66
2024/02/13 07:07:41;;;;;;;33.63;14.57;;;;;;;-1.25;60.04;100125.34;4782517;29;20054;-65
2024/02/13 07:10:08;;;;;;;24.85;11.23;;;;;;;-1.41;60.03;100092.28;4792346;29;20503;-65
2024/02/13 07:12:52;;;;;;;24.23;10.60;;;;;;;-0.96;60.50;100127.44;4791753;29;20134;-66
2024/02/13 07:15:18;;;;;;;16.13;8.27;;;;;;;-0.91;59.97;100120.84;4780868;29;20043;-67
2024/02/13 07:17:44;;;;;;;26.50;11.73;;;;;;;-0.82;59.99;100121.22;4792402;29;20145;-64
2024/02/13 07:20:11;;;;;;;26.42;11.02;;;;;;;-0.74;59.72;100144.53;4777699;29;20263;-65
2024/02/13 07:22:45;;;;;;;22.45;10.05;;;;;;;-0.76;59.76;100139.38;4790608;29;20411;-65
2024/02/13 07:25:11;;;;;;;18.63;8.85;;;;;;;-0.71;60.38;100129.31;4765369;29;20058;-69
2024/02/13 07:27:40;;;;;;;16.77;8.30;;;;;;;-0.59;60.12;100128.09;4783002;29;20596;-65
2024/02/13 07:30:08;;;;;;;17.60;8.07;;;;;;;-0.52;59.82;100135.19;4766990;29;20046;-65
2024/02/13 07:32:35;;;;;;;17.92;7.90;;;;;;;-0.46;59.50;100135.47;4777661;29;20077;-65
2024/02/13 07:35:04;;;;;;;17.85;8.10;;;;;;;-0.35;59.67;100139.34;4766441;29;20046;-67
2024/02/13 07:37:34;;;;;;;15.55;7.45;;;;;;;-0.34;59.33;100130.88;4777341;29;20042;-65
2024/02/13 07:40:01;;;;;;;18.00;7.90;;;;;;;-0.35;58.15;100164.03;4780473;29;20054;-67
2024/02/13 07:42:32;;;;;;;17.98;7.82;;;;;;;-0.51;59.15;100149.72;4760093;29;20055;-67
2024/02/13 07:44:58;;;;;;;15.02;7.70;;;;;;;-0.44;59.84;100141.50;4762674;29;20103;-66
2024/02/13 07:47:28;;;;;;;15.70;7.90;;;;;;;-0.36;59.62;100142.72;4791539;29;20051;-65
2024/02/13 07:49:55;;;;;;;15.80;7.60;;;;;;;-0.21;59.20;100167.16;4789300;29;20046;-66
2024/02/13 07:52:21;;;;;;;14.60;7.45;;;;;;;-0.43;58.67;100124.47;4767647;29;20057;-66
2024/02/13 07:54:48;;;;;;;19.17;8.30;;;;;;;-0.13;58.79;100147.00;4789473;29;20043;-65
2024/02/13 07:57:17;;;;;;;14.68;7.30;;;;;;;-0.04;57.98;100167.84;4765227;29;20058;-66
2024/02/13 07:59:46;;;;;;;17.38;7.97;;;;;;;0.06;58.51;100175.06;4774641;29;20204;-66
2024/02/13 08:02:15;;;;;;;14.93;8.48;;;;;;;0.21;58.56;100179.91;4779937;29;20058;-65
2024/02/13 08:04:41;;;;;;;15.35;7.18;;;;;;;0.24;58.96;100177.47;4789736;29;20629;-65
2024/02/13 08:07:11;;;;;;;17.33;7.72;;;;;;;0.33;58.25;100186.34;4795703;29;21611;-65
2024/02/13 08:09:37;;;;;;;14.55;7.40;;;;;;;0.18;58.21;100161.00;4751966;29;20054;-64
2024/02/13 08:12:06;;;;;;;14.82;7.30;;;;;;;0.04;57.93;100171.56;4765645;29;20038;-66
2024/02/13 08:14:38;;;;;;;13.13;7.60;;;;;;;0.05;58.17;100190.38;4761201;29;20414;-63
2024/02/13 08:17:08;;;;;;;15.48;7.78;;;;;;;-0.02;57.71;100172.19;4791509;29;20050;-66
2024/02/13 08:19:34;;;;;;;14.07;6.80;;;;;;;0.04;57.92;100168.16;4779488;29;20436;-65
2024/02/13 08:22:00;;;;;;;14.23;7.20;;;;;;;0.25;57.45;100194.59;4762485;29;20047;-65
2024/02/13 08:24:29;;;;;;;15.27;7.38;;;;;;;0.35;57.90;100190.69;4765019;29;20043;-64
2024/02/13 08:26:55;;;;;;;13.88;7.20;;;;;;;0.38;56.98;100180.56;4779688;29;20104;-66
2024/02/13 08:29:22;;;;;;;18.55;7.75;;;;;;;0.45;57.29;100179.13;4749781;29;20057;-65
2024/02/13 08:31:50;;;;;;;15.95;7.25;;;;;;;0.40;57.44;100162.69;4780450;29;20043;-66
2024/02/13 08:34:17;;;;;;;13.70;7.85;;;;;;;0.33;57.30;100181.22;4794998;29;20139;-66
2024/02/13 08:36:45;;;;;;;14.90;8.38;;;;;;;0.50;57.36;100190.41;4791488;29;20200;-65
2024/02/13 08:39:11;;;;;;;18.17;7.97;;;;;;;0.64;56.87;100184.94;4791611;29;20103;-65
2024/02/13 08:41:37;;;;;;;14.10;7.43;;;;;;;0.40;56.54;100180.63;4769863;29;20051;-65
2024/02/13 08:44:03;;;;;;;13.98;7.15;;;;;;;0.56;56.67;100194.91;4777137;29;20536;-66
2024/02/13 08:46:30;;;;;;;16.02;7.93;;;;;;;0.60;56.65;100214.69;4763285;29;20480;-66
2024/02/13 08:48:56;;;;;;;15.27;8.02;;;;;;;0.31;56.20;100198.22;4765241;29;20058;-66
2024/02/13 08:51:26;;;;;;;11.65;6.38;;;;;;;0.42;56.70;100202.94;4762000;29;20055;-66
2024/02/13 08:53:53;;;;;;;17.50;8.95;;;;;;;0.34;56.10;100193.19;4780572;29;20055;-65
2024/02/13 08:56:19;;;;;;;16.55;8.32;;;;;;;0.53;56.20;100185.41;4790343;29;20396;-65
2024/02/13 08:58:46;;;;;;;14.20;7.30;;;;;;;0.71;55.82;100179.22;4778040;29;20043;-65
2024/02/13 09:01:12;;;;;;;13.85;7.43;;;;;;;0.83;55.66;100214.69;4779059;29;20578;-66
2024/02/13 09:03:38;;;;;;;14.38;6.93;;;;;;;0.43;54.41;100224.28;4779636;29;20043;-66
2024/02/13 09:06:05;;;;;;;13.63;7.53;;;;;;;0.37;55.81;100229.16;4781242;29;20051;-65
2024/02/13 09:08:34;;;;;;;12.98;6.85;;;;;;;0.22;53.97;100219.19;4783279;29;20042;-65
2024/02/13 09:11:00;;;;;;;14.07;7.50;;;;;;;0.23;54.96;100223.47;4782402;29;20109;-66
2024/02/13 09:13:28;;;;;;;14.13;6.90;;;;;;;0.24;56.50;100238.91;4782863;29;20060;-65
2024/02/13 09:15:55;;;;;;;15.23;7.18;;;;;;;0.18;56.38;100223.31;4775002;29;20053;-65
2024/02/13 09:18:24;;;;;;;14.95;8.18;;;;;;;0.47;56.77;100221.03;4767461;29;20051;-66
2024/02/13 09:20:54;;;;;;;15.20;8.02;;;;;;;0.82;55.64;100231.72;4778373;29;20147;-67
2024/02/13 09:23:20;;;;;;;13.20;7.57;;;;;;;0.88;56.10;100206.34;4782659;29;20054;-65
2024/02/13 09:25:51;;;;;;;14.45;7.97;;;;;;;1.22;55.79;100216.06;4782030;29;20046;-66
2024/02/13 09:28:17;;;;;;;15.95;8.07;;;;;;;1.45;55.42;100227.16;4794293;29;20503;-66
2024/02/13 09:30:47;;;;;;;16.20;8.23;;;;;;;1.35;55.56;100225.94;4765169;29;20043;-67
2024/02/13 09:33:14;;;;;;;15.27;7.78;;;;;;;1.41;55.38;100240.69;4778083;29;20039;-65
2024/02/13 09:35:40;;;;;;;16.38;8.32;;;;;;;1.18;54.53;100256.09;4781798;29;20150;-65
2024/02/13 09:38:06;;;;;;;17.05;8.20;;;;;;;0.75;54.58;100222.09;4792584;29;20576;-66
2024/02/13 09:40:33;;;;;;;14.60;7.90;;;;;;;1.01;54.94;100261.50;4777517;29;20104;-67
2024/02/13 09:43:00;;;;;;;14.95;7.28;;;;;;;0.93;54.77;100260.31;4752243;29;20039;-66
2024/02/13 09:45:26;;;;;;;15.00;8.75;;;;;;;0.90;55.11;100235.47;4792499;29;20054;-65
2024/02/13 09:48:02;;;;;;;16.13;8.80;;;;;;;0.82;53.37;100249.66;4797793;29;20054;-66
2024/02/13 09:50:37;;;;;;;14.32;7.32;;;;;;;0.63;54.87;100247.22;4751675;29;20046;-65
2024/02/13 09:53:11;;;;;;;14.47;9.13;;;;;;;0.61;54.74;100262.53;4762067;29;20054;-65
2024/02/13 09:55:39;;;;;;;17.63;9.05;;;;;;;0.56;54.05;100272.59;4780932;29;20300;-66
2024/02/13 09:58:05;;;;;;;15.68;8.50;;;;;;;0.35;53.32;100289.66;4793801;29;20515;-65
2024/02/13 10:00:32;;;;;;;19.23;9.02;;;;;;;0.25;54.09;100296.09;4789936;29;20081;-66
2024/02/13 10:03:02;;;;;;;17.00;8.13;;;;;;;0.22;55.25;100291.75;4796991;29;20074;-66
2024/02/13 10:05:28;;;;;;;16.50;8.70;;;;;;;0.58;54.73;100291.47;4766278;29;20039;-66
2024/02/13 10:07:57;;;;;;;21.42;11.13;;;;;;;0.61;54.63;100285.59;4788816;29;20046;-64
2024/02/13 10:10:23;;;;;;;18.40;10.15;;;;;;;0.80;54.85;100291.44;4793464;29;20067;-67
2024/02/13 10:12:59;;;;;;;20.60;10.45;;;;;;;1.07;54.71;100295.88;4796326;29;20043;-65
2024/02/13 10:15:46;;;;;;;18.73;10.52;;;;;;;0.90;54.58;100273.91;4802877;29;20424;-66
2024/02/13 10:18:13;;;;;;;21.13;10.32;;;;;;;1.02;55.02;100281.19;4781825;29;20054;-66
2024/02/13 10:20:41;;;;;;;19.33;9.00;;;;;;;1.15;54.21;100290.22;4772665;29;20057;-66
2024/02/13 10:23:11;;;;;;;17.27;9.45;;;;;;;1.31;54.44;100291.66;4766246;29;20043;-66
2024/02/13 10:25:38;;;;;;;18.02;9.65;;;;;;;1.31;54.23;100294.22;4795954;29;20047;-66
2024/02/13 10:28:06;;;;;;;20.23;10.15;;;;;;;1.33;54.35;100289.13;4793745;29;20502;-65
2024/02/13 10:30:37;;;;;;;17.27;9.40;;;;;;;1.33;53.67;100297.69;4792231;29;20144;-66
2024/02/13 10:33:08;;;;;;;20.58;9.43;;;;;;;1.22;53.87;100316.06;4778662;29;20083;-65
2024/02/13 10:35:34;;;;;;;16.05;8.57;;;;;;;1.23;52.93;100315.25;4771920;29;20124;-67
2024/02/13 10:38:03;;;;;;;19.75;9.85;;;;;;;1.13;54.18;100322.59;4776831;29;20056;-66
2024/02/13 10:40:29;;;;;;;16.23;8.70;;;;;;;1.35;54.58;100314.00;4766588;29;20393;-66
2024/02/13 10:42:57;;;;;;;19.02;9.40;;;;;;;1.44;53.78;100307.47;4775854;29;20046;-65
2024/02/13 10:45:32;;;;;;;20.90;10.07;;;;;;;1.45;54.10;100307.53;4787660;29;20071;-65
2024/02/13 10:48:33;;;;;;;19.00;9.23;;;;;;;0.99;53.51;100309.25;4782627;29;20058;-66
2024/02/13 10:51:02;;;;;;;18.10;8.55;;;;;;;0.77;52.42;100335.75;4767128;29;20050;-67
2024/02/13 10:53:32;;;;;;;15.27;8.48;;;;;;;0.72;53.85;100337.25;4766961;29;20576;-66
2024/02/13 10:55:58;;;;;;;19.17;8.90;;;;;;;0.60;53.71;100325.69;4780421;29;20498;-65
2024/02/13 10:58:29;;;;;;;16.80;8.65;;;;;;;0.41;53.54;100336.00;4791011;29;20189;-67
2024/02/13 11:00:58;;;;;;;18.10;8.68;;;;;;;0.30;54.05;100335.56;4781431;29;20043;-66
2024/02/13 11:03:25;;;;;;;18.95;8.55;;;;;;;0.29;52.86;100321.91;4780206;29;20137;-67
2024/02/13 11:05:52;;;;;;;19.73;9.10;;;;;;;0.31;53.28;100334.75;4792916;29;21147;-66
2024/02/13 11:08:19;;;;;;;23.35;9.70;;;;;;;0.02;53.96;100279.81;4795432;29;20047;-65
2024/02/13 11:10:45;;;;;;;23.23;10.07;;;;;;;0.46;54.76;100337.09;4780658;29;20050;-66
2024/02/13 11:13:12;;;;;;;25.95;11.60;;;;;;;0.56;54.52;100312.72;4792486;29;20050;-65
2024/02/13 11:15:40;;;;;;;19.48;9.50;;;;;;;0.70;54.60;100321.81;4780181;29;20430;-66
2024/02/13 11:18:28;;;;;;;16.30;8.57;;;;;;;0.81;54.37;100332.47;4782239;29;20053;-67
2024/02/13 11:21:00;;;;;;;19.63;9.00;;;;;;;0.78;53.64;100318.69;4780390;29;20054;-66
2024/02/13 11:23:55;;;;;;;18.98;8.93;;;;;;;0.79;53.47;100335.81;4765585;29;20057;-65
2024/02/13 11:26:21;;;;;;;16.40;8.73;;;;;;;0.39;53.25;100314.59;4779898;29;22015;-66
2024/02/13 11:28:48;;;;;;;19.10;8.77;;;;;;;0.43;54.25;100322.47;4760628;29;20106;-65
2024/02/13 11:31:15;;;;;;;16.70;8.55;;;;;;;0.34;53.63;100342.56;4792235;29;20043;-67
2024/02/13 11:34:04;;;;;;;15.77;8.35;;;;;;;0.28;53.79;100338.09;4790510;29;20772;-66
2024/02/13 11:36:35;;;;;;;19.25;8.30;;;;;;;0.33;53.87;100335.69;4766815;29;21547;-65